Time;durP1;ratioP1;P1;durP2;ratioP2;P2;SDS_P1;SDS_P2;PMS_P1;PMS_P2;Temp;Humidity;BMP_temperature;BMP_pressure;BME280_temperature;BME280_humidity;BME280_pressure;Samples;Min_cycle;Max_cycle;Signal;HPM_P1;HPM_P2
2022/05/20 00:01:50;;;;;;;8.90;6.13;;;;;;;8.00;77.99;99343.50;5060359;28;20039;-68
2022/05/20 00:04:15;;;;;;;9.93;5.68;;;;;;;8.06;77.65;99338.72;5043244;28;20575;-68
2022/05/20 00:06:40;;;;;;;10.68;6.70;;;;;;;8.09;77.31;99342.03;5060327;28;20878;-69
2022/05/20 00:09:05;;;;;;;11.20;6.78;;;;;;;8.09;77.12;99342.03;5079486;28;20116;-66
2022/05/20 00:11:30;;;;;;;8.98;6.22;;;;;;;8.10;76.66;99342.91;5061129;28;20063;-67
2022/05/20 00:13:54;;;;;;;15.15;7.13;;;;;;;8.11;76.70;99344.59;5060644;28;20138;-67
2022/05/20 00:16:19;;;;;;;8.45;5.95;;;;;;;8.10;76.52;99338.44;5082784;28;20122;-65
2022/05/20 00:18:44;;;;;;;8.82;5.72;;;;;;;8.09;76.85;99347.34;5049911;28;20050;-65
2022/05/20 00:21:08;;;;;;;11.88;5.72;;;;;;;8.09;76.19;99350.00;5052389;28;20160;-65
2022/05/20 00:23:34;;;;;;;11.00;6.50;;;;;;;8.08;76.36;99352.75;5089409;27;20050;-65
2022/05/20 00:25:58;;;;;;;9.77;5.85;;;;;;;8.09;75.75;99354.47;5094169;27;20095;-65
2022/05/20 00:28:28;;;;;;;10.27;5.55;;;;;;;8.09;75.69;99352.66;5095835;27;20099;-66
2022/05/20 00:31:00;;;;;;;12.23;6.40;;;;;;;8.07;75.61;99359.88;5081434;27;20193;-66
2022/05/20 00:33:26;;;;;;;8.95;6.00;;;;;;;8.06;75.47;99363.47;5059534;27;20091;-64
2022/05/20 00:35:51;;;;;;;9.35;6.20;;;;;;;8.03;75.22;99371.63;5060910;27;20409;-64
2022/05/20 00:38:16;;;;;;;10.57;5.68;;;;;;;8.01;75.22;99376.22;5098022;27;20039;-65
2022/05/20 00:40:42;;;;;;;8.60;5.38;;;;;;;7.98;75.77;99369.31;5059448;28;20046;-64
2022/05/20 00:43:15;;;;;;;8.70;6.28;;;;;;;7.99;75.28;99380.78;5077643;28;20414;-66
2022/05/20 00:45:42;;;;;;;14.55;5.95;;;;;;;7.92;75.30;99375.00;5076155;28;20040;-65
2022/05/20 00:48:07;;;;;;;11.40;7.07;;;;;;;7.87;75.61;99370.94;5059528;28;20043;-65
2022/05/20 00:50:33;;;;;;;14.48;7.00;;;;;;;7.82;75.56;99376.53;5042677;28;20653;-67
2022/05/20 00:52:58;;;;;;;16.67;6.20;;;;;;;7.78;75.66;99380.34;5059773;28;20073;-68
2022/05/20 00:55:24;;;;;;;13.25;7.47;;;;;;;7.74;75.63;99384.16;5078188;28;20047;-67
2022/05/20 00:58:04;;;;;;;13.52;6.30;;;;;;;7.73;75.39;99387.75;5078717;28;20502;-70
2022/05/20 01:00:31;;;;;;;10.75;6.45;;;;;;;7.69;75.77;99396.00;5093167;27;20046;-73
2022/05/20 01:03:03;;;;;;;15.75;6.72;;;;;;;7.68;75.28;99400.44;5090302;27;20517;-68
2022/05/20 01:05:35;;;;;;;10.32;5.50;;;;;;;7.60;75.45;99408.03;5109727;27;20054;-68
2022/05/20 01:08:01;;;;;;;9.57;6.40;;;;;;;7.53;75.09;99410.25;5090782;27;20035;-67
2022/05/20 01:10:26;;;;;;;11.48;6.47;;;;;;;7.48;75.15;99404.34;5089542;27;20046;-67
2022/05/20 01:12:53;;;;;;;9.18;5.75;;;;;;;7.45;74.60;99420.44;5100220;27;20046;-68
2022/05/20 01:15:18;;;;;;;10.95;6.40;;;;;;;7.42;74.77;99422.47;5097675;27;20039;-67
2022/05/20 01:17:44;;;;;;;12.48;6.07;;;;;;;7.35;75.01;99418.47;5099024;27;20043;-68
2022/05/20 01:20:19;;;;;;;9.27;6.30;;;;;;;7.37;74.93;99416.59;5081927;27;20050;-67
2022/05/20 01:22:54;;;;;;;12.00;7.00;;;;;;;7.34;74.25;99420.28;5100302;27;20505;-65
2022/05/20 01:25:19;;;;;;;8.73;6.20;;;;;;;7.30;73.96;99424.06;5110346;27;20058;-72
2022/05/20 01:27:44;;;;;;;8.48;6.15;;;;;;;7.28;73.72;99425.97;5099572;27;20043;-74
2022/05/20 01:30:15;;;;;;;10.65;4.93;;;;;;;7.33;72.63;99444.25;5065322;27;20049;-71
2022/05/20 01:32:40;;;;;;;8.77;5.30;;;;;;;7.34;72.36;99444.13;5113836;27;20035;-74
2022/05/20 01:35:11;;;;;;;9.18;4.97;;;;;;;7.40;71.83;99440.28;5112281;27;20047;-72
2022/05/20 01:37:35;;;;;;;7.35;4.65;;;;;;;7.43;71.12;99434.78;5073537;27;20528;-73
2022/05/20 01:40:00;;;;;;;7.45;4.70;;;;;;;7.45;70.97;99436.38;5073269;27;20043;-72
2022/05/20 01:42:33;;;;;;;13.95;4.55;;;;;;;7.50;70.50;99447.56;5111768;27;20049;-73
2022/05/20 01:45:50;;;;;;;5.00;3.80;;;;;;;7.58;69.90;99439.97;5110511;27;20476;-71
2022/05/20 01:48:35;;;;;;;5.25;3.60;;;;;;;7.61;69.62;99446.91;5001553;28;20049;-71
2022/05/20 01:51:02;;;;;;;5.55;3.95;;;;;;;7.60;69.42;99440.72;4977772;28;20055;-72
2022/05/20 01:53:57;;;;;;;6.80;3.50;;;;;;;7.68;68.10;99447.34;4995020;28;20041;-67
2022/05/20 01:56:30;;;;;;;7.50;3.75;;;;;;;7.66;68.16;99460.75;4989266;28;20070;-66
2022/05/20 01:59:17;;;;;;;5.53;3.70;;;;;;;7.71;66.53;99457.78;4957393;28;20049;-66
2022/05/20 02:01:51;;;;;;;3.20;2.45;;;;;;;7.71;66.17;99460.44;4954141;28;20628;-67
2022/05/20 02:04:20;;;;;;;2.90;2.17;;;;;;;7.75;65.50;99462.81;4938125;28;20583;-68
2022/05/20 02:06:52;;;;;;;2.38;2.13;;;;;;;7.78;65.25;99469.72;4954214;28;20053;-67
2022/05/20 02:09:24;;;;;;;3.17;2.50;;;;;;;7.78;64.27;99470.59;4938077;28;20046;-67
2022/05/20 02:11:54;;;;;;;2.28;2.00;;;;;;;7.82;63.66;99473.88;4954261;28;20042;-70
2022/05/20 02:14:39;;;;;;;3.92;2.55;;;;;;;7.90;63.68;99474.28;4937916;28;20042;-67
2022/05/20 02:17:04;;;;;;;4.38;2.80;;;;;;;7.87;63.60;99479.75;4951953;28;20057;-67
2022/05/20 02:19:38;;;;;;;3.00;2.22;;;;;;;7.93;62.80;99487.31;4973521;28;20042;-69
2022/05/20 02:22:05;;;;;;;;;;;;;;;8.06;63.75;99488.25;4944085;28;20053;-66
2022/05/20 02:24:33;;;;;;;4.78;2.10;;;;;;;7.97;61.84;99478.22;5050044;28;19916;-67
2022/05/20 02:27:02;;;;;;;3.92;2.03;;;;;;;7.96;61.14;99481.84;5062112;28;20039;-68
2022/05/20 02:29:32;;;;;;;2.72;1.65;;;;;;;7.99;60.67;99484.28;5057687;28;20054;-66
2022/05/20 02:32:35;;;;;;;3.17;2.10;;;;;;;8.03;60.46;99480.47;5075140;28;20410;-67
2022/05/20 02:35:01;;;;;;;2.08;1.80;;;;;;;7.98;59.42;99494.06;4995782;28;20136;-69
2022/05/20 02:37:32;;;;;;;2.15;1.42;;;;;;;8.02;58.12;99494.69;5011881;28;20040;-69
2022/05/20 02:39:58;;;;;;;2.80;1.98;;;;;;;8.07;58.55;99495.28;4995684;28;20111;-70
2022/05/20 02:42:23;;;;;;;5.10;1.85;;;;;;;8.19;57.16;99494.50;4996768;28;20531;-69
2022/05/20 02:44:48;;;;;;;2.15;1.63;;;;;;;8.27;56.49;99486.88;5012993;28;20060;-68
2022/05/20 02:47:13;;;;;;;2.08;1.55;;;;;;;8.38;55.47;99487.06;5013636;28;20067;-71
2022/05/20 02:49:38;;;;;;;3.17;1.42;;;;;;;8.48;54.88;99489.97;4980510;28;20040;-75
2022/05/20 02:52:04;;;;;;;4.82;1.95;;;;;;;8.62;54.78;99491.72;5013688;28;20045;-74
2022/05/20 02:54:29;;;;;;;2.08;1.92;;;;;;;8.72;53.89;99493.69;5016762;28;20071;-73
2022/05/20 02:56:54;;;;;;;1.75;1.27;;;;;;;8.80;54.06;99484.38;5017593;28;20053;-72
2022/05/20 03:04:46;;;;;;;3.83;1.90;;;;;;;8.96;52.30;99493.00;5018857;28;20048;-70
2022/05/20 03:07:13;;;;;;;3.17;1.15;;;;;;;8.99;51.23;99498.97;5017001;28;20201;-72
2022/05/20 03:09:37;;;;;;;2.05;1.58;;;;;;;9.03;51.10;99504.91;5017739;28;20055;-74
2022/05/20 03:12:02;;;;;;;2.33;1.67;;;;;;;9.10;51.78;99500.91;5045567;28;20044;-72
2022/05/20 03:14:27;;;;;;;2.38;1.55;;;;;;;9.22;50.85;99507.19;5060692;28;20047;-72
2022/05/20 03:16:52;;;;;;;2.00;1.48;;;;;;;9.31;50.27;99517.22;5077975;28;20035;-71
2022/05/20 03:19:19;;;;;;;2.58;1.73;;;;;;;9.41;50.36;99516.47;5060401;28;20051;-74
2022/05/20 03:21:44;;;;;;;3.20;1.80;;;;;;;9.52;50.01;99515.72;5064885;28;20123;-74
2022/05/20 03:24:10;;;;;;;2.05;1.80;;;;;;;9.60;48.72;99521.38;5061129;28;20059;-72
2022/05/20 03:26:35;;;;;;;2.17;1.40;;;;;;;9.67;49.18;99517.34;5062225;28;20097;-71
2022/05/20 03:29:02;;;;;;;8.77;3.20;;;;;;;9.68;48.36;99520.84;5065439;28;20058;-73
2022/05/20 03:31:27;;;;;;;2.35;1.77;;;;;;;9.74;48.30;99515.94;5049371;28;20032;-72
2022/05/20 03:33:52;;;;;;;3.00;1.45;;;;;;;9.79;48.10;99529.78;5046723;28;20187;-72
2022/05/20 03:36:17;;;;;;;2.47;2.28;;;;;;;9.86;47.90;99532.00;5082889;28;20043;-73
2022/05/20 03:38:42;;;;;;;1.95;1.33;;;;;;;9.90;47.70;99533.50;5069000;28;20050;-72
2022/05/20 03:41:07;;;;;;;4.30;1.63;;;;;;;10.00;47.89;99540.75;5085892;28;20028;-74
2022/05/20 03:43:33;;;;;;;5.22;1.60;;;;;;;10.14;48.22;99543.28;5087864;28;20066;-73
2022/05/20 03:45:57;;;;;;;5.18;2.20;;;;;;;10.27;47.75;99551.25;5068934;28;20047;-73
2022/05/20 03:48:22;;;;;;;2.80;1.90;;;;;;;10.37;47.45;99546.16;5065706;28;20047;-72
2022/05/20 03:50:47;;;;;;;2.28;1.80;;;;;;;10.47;47.43;99549.84;5060847;28;20039;-72
2022/05/20 03:53:12;;;;;;;2.45;1.75;;;;;;;10.60;46.92;99558.66;5043877;28;20055;-73
2022/05/20 03:55:37;;;;;;;3.55;1.52;;;;;;;10.75;46.45;99564.66;5043375;28;20515;-74
2022/05/20 03:58:02;;;;;;;2.10;1.60;;;;;;;10.86;46.43;99568.25;5077161;27;20453;-74
2022/05/20 04:00:28;;;;;;;3.17;1.58;;;;;;;10.98;45.73;99561.16;5043270;28;20028;-73
2022/05/20 04:02:53;;;;;;;2.30;1.88;;;;;;;10.99;45.28;99562.00;5047809;27;20084;-73
2022/05/20 04:05:18;;;;;;;1.67;1.52;;;;;;;11.03;45.94;99566.16;5097527;27;20070;-73
2022/05/20 04:07:43;;;;;;;8.48;4.32;;;;;;;11.03;45.88;99553.66;5048378;28;20032;-73
2022/05/20 04:10:09;;;;;;;3.50;2.38;;;;;;;11.07;44.79;99563.13;5069109;28;20073;-72
2022/05/20 04:12:38;;;;;;;2.50;2.30;;;;;;;11.17;45.96;99569.47;5068664;28;20040;-73
2022/05/20 04:15:04;;;;;;;2.63;1.88;;;;;;;11.28;45.95;99568.69;5045692;28;20070;-73
2022/05/20 04:17:29;;;;;;;2.55;1.67;;;;;;;11.42;45.45;99564.94;5060037;28;20168;-73
2022/05/20 04:19:54;;;;;;;1.85;1.75;;;;;;;11.62;45.18;99566.97;5044130;28;20092;-72
2022/05/20 04:22:28;;;;;;;3.08;1.83;;;;;;;11.74;44.10;99576.69;5064784;27;20055;-72
2022/05/20 04:24:53;;;;;;;2.15;1.95;;;;;;;11.69;43.53;99567.34;5098438;27;20043;-71
2022/05/20 04:27:18;;;;;;;2.05;1.70;;;;;;;11.85;44.39;99579.41;5079861;27;20513;-72
2022/05/20 04:29:43;;;;;;;2.75;2.17;;;;;;;12.07;43.41;99577.75;5062661;27;20409;-72
2022/05/20 04:32:08;;;;;;;3.75;2.30;;;;;;;12.28;42.98;99578.72;5079672;27;20042;-70
2022/05/20 04:34:32;;;;;;;3.70;2.42;;;;;;;12.54;42.70;99577.47;5080106;27;20122;-73
2022/05/20 04:36:57;;;;;;;2.10;1.90;;;;;;;12.78;41.88;99574.63;5079884;27;20142;-72
2022/05/20 04:39:22;;;;;;;3.80;2.38;;;;;;;13.06;41.34;99574.09;5079884;27;20142;-72
2022/05/20 04:47:21;;;;;;;2.50;2.17;;;;;;;13.72;38.62;99584.63;5098051;27;20045;-72
2022/05/20 04:49:46;;;;;;;3.38;2.05;;;;;;;13.91;38.74;99584.75;5045860;27;20066;-74
2022/05/20 04:52:10;;;;;;;1.73;1.63;;;;;;;14.14;38.50;99588.97;5098514;27;20513;-74
2022/05/20 04:54:50;;;;;;;1.90;1.70;;;;;;;14.37;38.05;99591.47;5080494;27;20043;-73
2022/05/20 04:57:18;;;;;;;7.22;2.63;;;;;;;14.41;37.44;99584.91;5064990;27;20091;-73
2022/05/20 04:59:43;;;;;;;6.38;2.28;;;;;;;14.45;38.20;99572.88;5080374;27;20043;-73
2022/05/20 05:02:08;;;;;;;3.72;1.80;;;;;;;14.29;37.47;99580.56;5065461;27;20171;-73
2022/05/20 05:04:33;;;;;;;3.08;1.98;;;;;;;14.01;37.18;99582.97;5100044;27;20047;-74
2022/05/20 05:06:58;;;;;;;2.05;1.70;;;;;;;13.88;37.49;99587.72;5063543;27;20137;-73
2022/05/20 05:09:23;;;;;;;2.17;1.92;;;;;;;13.93;37.06;99582.78;5079944;27;20421;-73
2022/05/20 05:11:49;;;;;;;6.63;2.13;;;;;;;14.12;37.29;99580.19;5045690;27;20035;-72
2022/05/20 05:14:14;;;;;;;4.28;2.20;;;;;;;14.04;36.66;99589.91;5080066;27;20122;-75
2022/05/20 05:16:40;;;;;;;4.72;2.58;;;;;;;13.70;37.64;99587.44;5080233;27;20111;-74
2022/05/20 05:19:05;;;;;;;2.22;1.92;;;;;;;13.60;37.42;99596.38;5062927;27;20043;-73
2022/05/20 05:21:30;;;;;;;5.40;2.15;;;;;;;13.82;38.53;99589.06;5100871;27;20047;-73
2022/05/20 05:23:55;;;;;;;2.85;2.28;;;;;;;14.04;37.25;99584.53;5098314;27;20054;-73
2022/05/20 05:26:22;;;;;;;3.40;2.25;;;;;;;13.93;35.77;99598.88;5063562;27;20050;-73
2022/05/20 05:28:47;;;;;;;3.67;1.60;;;;;;;13.85;34.86;99592.47;5099562;27;20059;-74
2022/05/20 05:31:12;;;;;;;4.47;1.88;;;;;;;13.82;36.13;99604.28;5081104;27;20050;-73
2022/05/20 05:33:36;;;;;;;4.70;2.17;;;;;;;13.82;35.69;99598.94;5079639;27;20039;-71
2022/05/20 05:36:01;;;;;;;2.28;1.73;;;;;;;13.78;36.91;99597.50;5079357;27;20038;-73
2022/05/20 05:38:26;;;;;;;6.13;1.67;;;;;;;14.15;35.61;99606.75;5097140;27;20383;-74
2022/05/20 05:40:50;;;;;;;2.88;1.73;;;;;;;14.71;34.48;99608.16;5078985;27;20043;-74
2022/05/20 05:43:16;;;;;;;4.05;1.80;;;;;;;15.28;33.13;99604.72;5078792;27;20122;-74
2022/05/20 05:45:41;;;;;;;2.13;1.90;;;;;;;15.66;32.25;99606.59;5078734;27;20066;-72
2022/05/20 05:48:08;;;;;;;2.20;1.60;;;;;;;15.93;31.17;99598.63;5078826;27;20520;-73
2022/05/20 05:50:36;;;;;;;2.28;1.92;;;;;;;16.24;30.60;99601.97;5079252;27;20050;-74
2022/05/20 05:53:13;;;;;;;2.63;1.77;;;;;;;16.58;28.80;99602.25;5062090;27;20031;-75
2022/05/20 05:55:39;;;;;;;2.00;1.73;;;;;;;17.16;29.43;99591.16;5078355;27;20050;-71
2022/05/20 05:58:03;;;;;;;3.17;1.83;;;;;;;17.45;27.17;99598.19;5078326;27;20079;-74
2022/05/20 06:00:28;;;;;;;2.92;1.77;;;;;;;18.02;26.72;99599.50;5044179;27;20038;-72
2022/05/20 06:02:53;;;;;;;2.47;1.45;;;;;;;18.95;26.12;99606.78;5077863;27;20047;-73
2022/05/20 06:05:18;;;;;;;1.40;1.33;;;;;;;19.82;25.62;99600.00;5061106;27;20413;-72
2022/05/20 06:07:43;;;;;;;2.10;1.73;;;;;;;20.17;24.36;99607.75;5078210;27;20409;-74
2022/05/20 06:10:08;;;;;;;3.00;2.13;;;;;;;20.48;23.45;99621.41;5096686;27;20404;-72
2022/05/20 06:12:34;;;;;;;2.35;1.80;;;;;;;21.10;23.21;99610.69;5044348;28;20145;-73
2022/05/20 06:15:02;;;;;;;2.83;2.15;;;;;;;22.08;22.74;99619.00;5062064;27;20486;-75
2022/05/20 06:17:30;;;;;;;1.70;1.60;;;;;;;23.08;22.22;99631.13;5081888;27;20424;-73
2022/05/20 06:19:55;;;;;;;3.30;2.15;;;;;;;23.93;21.36;99616.78;5078845;27;20051;-74
2022/05/20 06:22:19;;;;;;;3.47;2.28;;;;;;;24.56;20.79;99617.72;5078316;27;20051;-73
2022/05/20 06:24:44;;;;;;;4.13;2.13;;;;;;;25.11;20.11;99619.50;5079084;27;20043;-74
2022/05/20 06:27:09;;;;;;;4.40;3.13;;;;;;;25.59;19.86;99617.56;5097960;27;20039;-74
2022/05/20 06:29:35;;;;;;;2.72;2.47;;;;;;;25.86;19.35;99609.41;5098959;27;20049;-74
2022/05/20 06:32:00;;;;;;;5.13;2.50;;;;;;;26.25;19.21;99612.16;5076341;27;20034;-74
2022/05/20 06:34:25;;;;;;;2.22;2.03;;;;;;;26.51;18.22;99615.94;5109068;27;20047;-72
2022/05/20 06:39:51;;;;;;;2.95;2.15;;;;;;;27.43;17.79;99616.47;5097115;27;20053;-71
2022/05/20 06:42:19;;;;;;;2.33;2.08;;;;;;;27.63;17.36;99624.59;5077767;27;20043;-72
2022/05/20 06:44:45;;;;;;;3.13;2.85;;;;;;;27.69;16.35;99626.44;5060803;28;20047;-72
2022/05/20 06:47:10;;;;;;;2.58;2.38;;;;;;;27.87;16.68;99624.88;5060635;28;20047;-72
2022/05/20 06:49:35;;;;;;;3.65;2.22;;;;;;;28.14;16.93;99629.06;5061164;28;20051;-74
2022/05/20 06:52:00;;;;;;;2.92;2.40;;;;;;;28.42;16.86;99623.16;5061334;28;20114;-74
2022/05/20 06:54:25;;;;;;;5.55;2.50;;;;;;;28.94;16.15;99629.19;5078470;28;20046;-74
2022/05/20 06:56:50;;;;;;;5.22;3.20;;;;;;;29.61;15.39;99634.47;5077429;28;20098;-72
2022/05/20 06:59:14;;;;;;;5.75;2.92;;;;;;;30.05;14.33;99623.25;5077922;28;20145;-73
2022/05/20 07:01:39;;;;;;;2.28;2.13;;;;;;;30.58;14.09;99634.22;5077917;28;20447;-73
2022/05/20 07:04:05;;;;;;;2.40;2.20;;;;;;;30.99;13.02;99633.22;5096142;28;20130;-71
2022/05/20 07:06:32;;;;;;;2.80;2.60;;;;;;;31.45;13.43;99636.94;5060227;28;20038;-72
2022/05/20 07:08:56;;;;;;;3.22;2.38;;;;;;;31.93;13.08;99625.47;5077426;28;20504;-74
2022/05/20 07:11:23;;;;;;;5.25;2.80;;;;;;;32.58;12.67;99633.19;5060488;28;20524;-72
2022/05/20 07:13:52;;;;;;;2.70;2.50;;;;;;;33.14;12.26;99638.41;5077230;28;20146;-71
2022/05/20 07:16:17;;;;;;;8.13;3.30;;;;;;;34.04;12.06;99636.97;5077424;28;20084;-71
2022/05/20 07:18:42;;;;;;;4.88;3.03;;;;;;;34.88;12.11;99628.75;5077076;28;20415;-72
2022/05/20 07:21:07;;;;;;;3.30;3.00;;;;;;;35.32;11.48;99641.50;5095857;28;20405;-73
2022/05/20 07:23:32;;;;;;;4.93;3.35;;;;;;;35.37;11.46;99642.31;5079583;28;20119;-71
2022/05/20 07:25:57;;;;;;;4.65;3.58;;;;;;;35.40;11.79;99646.50;5078325;28;20409;-73
2022/05/20 07:28:22;;;;;;;3.83;3.28;;;;;;;35.30;11.36;99638.97;5078111;28;20405;-69
2022/05/20 07:30:46;;;;;;;3.65;3.33;;;;;;;35.42;11.03;99641.53;5061010;28;20043;-72
2022/05/20 07:33:11;;;;;;;6.35;3.88;;;;;;;35.05;11.81;99652.69;5077470;28;20505;-71
2022/05/20 07:35:38;;;;;;;4.47;3.20;;;;;;;33.25;12.22;99649.63;5095941;28;20049;-71
2022/05/20 07:38:03;;;;;;;4.45;3.20;;;;;;;30.91;13.76;99658.38;5076940;28;20031;-70
2022/05/20 07:40:28;;;;;;;7.90;3.28;;;;;;;29.98;14.39;99667.34;5098331;27;20043;-71
2022/05/20 07:42:54;;;;;;;4.72;3.15;;;;;;;30.95;13.67;99663.13;5081026;27;20453;-71
2022/05/20 07:45:19;;;;;;;3.13;2.83;;;;;;;32.72;12.68;99662.97;5099087;27;20050;-72
2022/05/20 07:47:45;;;;;;;3.83;3.53;;;;;;;34.67;11.81;99662.13;5064113;27;20060;-71
2022/05/20 07:50:10;;;;;;;3.55;3.33;;;;;;;36.11;10.68;99668.88;5099571;27;20035;-71
2022/05/20 07:55:23;;;;;;;3.95;3.58;;;;;;;37.71;9.49;99673.59;5099055;27;20375;-71
2022/05/20 07:57:48;;;;;;;4.40;4.10;;;;;;;38.02;9.21;99668.69;5044887;27;20409;-72
2022/05/20 08:00:14;;;;;;;4.50;3.88;;;;;;;38.31;8.92;99669.59;5098769;27;20057;-71
2022/05/20 08:02:42;;;;;;;4.30;3.90;;;;;;;38.64;8.77;99667.94;5098630;27;20046;-71
2022/05/20 08:05:07;;;;;;;4.38;4.03;;;;;;;38.82;8.63;99669.16;5080575;27;20046;-72
2022/05/20 08:07:41;;;;;;;4.50;4.20;;;;;;;39.22;8.28;99667.88;5080249;27;20047;-72
2022/05/20 08:10:09;;;;;;;5.40;4.43;;;;;;;39.21;8.13;99678.22;5080677;27;20409;-70
2022/05/20 08:12:35;;;;;;;4.43;4.13;;;;;;;39.60;8.38;99673.59;5080230;27;20051;-69
2022/05/20 08:15:01;;;;;;;4.90;4.50;;;;;;;40.02;7.97;99672.72;5081064;27;20092;-73
2022/05/20 08:17:26;;;;;;;8.65;5.05;;;;;;;40.19;7.75;99670.19;5080596;27;20039;-72
2022/05/20 08:19:54;;;;;;;5.47;5.03;;;;;;;40.60;7.81;99668.41;5063318;27;20092;-72
2022/05/20 08:22:24;;;;;;;6.10;5.60;;;;;;;40.84;7.23;99661.84;5098320;27;20386;-73
2022/05/20 08:24:53;;;;;;;6.85;5.15;;;;;;;40.59;7.41;99665.91;5063648;27;20123;-73
2022/05/20 08:27:20;;;;;;;6.97;4.40;;;;;;;40.48;7.59;99673.66;5098940;27;20058;-70
2022/05/20 08:29:45;;;;;;;5.45;5.05;;;;;;;40.41;7.25;99664.81;5080149;27;20502;-71
2022/05/20 08:32:10;;;;;;;6.10;5.30;;;;;;;40.32;7.58;99666.66;5079910;27;20130;-70
2022/05/20 08:34:35;;;;;;;5.47;4.97;;;;;;;39.83;6.43;99658.72;5099312;27;20135;-72
2022/05/20 08:36:59;;;;;;;5.57;5.10;;;;;;;40.18;7.50;99649.00;5082687;27;20047;-72
2022/05/20 08:39:27;;;;;;;6.15;5.55;;;;;;;40.86;6.88;99660.38;5098690;27;20047;-71
2022/05/20 08:41:53;;;;;;;6.07;5.57;;;;;;;41.27;6.96;99654.03;5079514;27;20509;-73
2022/05/20 08:44:20;;;;;;;6.30;5.65;;;;;;;41.59;6.52;99651.09;5097962;27;20047;-71
2022/05/20 08:46:46;;;;;;;6.63;5.60;;;;;;;41.81;5.94;99652.28;5079344;27;20048;-71
2022/05/20 08:49:14;;;;;;;5.63;5.22;;;;;;;42.33;5.77;99650.75;5097539;27;20039;-71
2022/05/20 08:51:42;;;;;;;5.80;5.40;;;;;;;42.79;5.96;99646.78;5078152;27;20118;-71
2022/05/20 08:54:08;;;;;;;7.05;6.47;;;;;;;42.73;6.04;99637.66;5097448;27;20046;-71
2022/05/20 08:56:37;;;;;;;6.47;5.97;;;;;;;42.97;5.80;99634.50;5097637;27;20035;-72
2022/05/20 08:59:09;;;;;;;6.95;6.45;;;;;;;43.18;5.13;99635.59;5079155;27;20070;-72
2022/05/20 09:01:43;;;;;;;6.72;6.30;;;;;;;43.71;5.73;99643.81;5079253;27;20095;-70
2022/05/20 09:04:10;;;;;;;7.07;6.43;;;;;;;43.58;5.80;99644.78;5079649;27;20047;-70
2022/05/20 09:06:57;;;;;;;7.13;6.63;;;;;;;43.39;5.57;99641.41;5079473;27;20035;-72
2022/05/20 09:09:22;;;;;;;6.70;6.20;;;;;;;43.52;5.49;99629.22;5068391;27;20051;-72
2022/05/20 09:11:54;;;;;;;7.72;6.72;;;;;;;44.27;5.55;99650.44;5079219;27;20042;-71
2022/05/20 09:17:11;;;;;;;7.05;6.50;;;;;;;44.29;5.22;99644.47;5097141;27;20546;-72
2022/05/20 09:19:37;;;;;;;7.15;6.65;;;;;;;44.22;5.18;99627.31;5096918;27;20081;-73
2022/05/20 09:22:12;;;;;;;9.40;6.80;;;;;;;44.34;5.16;99622.66;5078259;27;20039;-71
2022/05/20 09:24:41;;;;;;;7.45;6.78;;;;;;;44.37;5.16;99624.81;5097419;27;20076;-71
2022/05/20 09:27:10;;;;;;;9.45;8.75;;;;;;;44.73;5.25;99623.53;5061946;27;20087;-73
2022/05/20 09:29:58;;;;;;;7.97;7.25;;;;;;;44.09;4.55;99617.91;5097869;27;20054;-72
2022/05/20 09:32:43;;;;;;;8.05;7.28;;;;;;;43.81;5.73;99617.38;5048161;27;20035;-71
2022/05/20 09:35:17;;;;;;;6.57;6.07;;;;;;;42.72;5.60;99622.81;5082234;27;20043;-70
2022/05/20 09:37:42;;;;;;;7.30;6.68;;;;;;;40.46;5.30;99606.06;5078366;27;20413;-69
2022/05/20 09:40:31;;;;;;;5.70;5.30;;;;;;;40.37;6.14;99607.06;5079892;27;20054;-70
2022/05/20 09:42:57;;;;;;;5.75;5.25;;;;;;;39.84;6.13;99601.78;5064226;27;20035;-71
2022/05/20 09:45:46;;;;;;;5.47;5.07;;;;;;;40.96;5.98;99595.88;5062333;27;20082;-74
2022/05/20 09:48:33;;;;;;;6.10;5.60;;;;;;;41.24;5.82;99596.72;5078351;27;20505;-73
2022/05/20 09:51:55;;;;;;;6.53;6.03;;;;;;;42.98;5.48;99605.31;5078427;27;20046;-73
2022/05/20 09:54:23;;;;;;;6.53;5.93;;;;;;;43.53;4.95;99602.81;5036939;28;20054;-73
2022/05/20 09:57:05;;;;;;;8.00;7.40;;;;;;;45.10;4.13;99614.31;5053793;28;20040;-72
2022/05/20 09:59:36;;;;;;;8.27;7.78;;;;;;;45.16;4.52;99603.69;5036541;28;21060;-72
2022/05/20 10:02:09;;;;;;;9.18;8.45;;;;;;;45.18;4.03;99595.75;5053180;28;20086;-73
2022/05/20 10:04:39;;;;;;;9.00;8.43;;;;;;;45.97;4.41;99599.66;5036869;28;20394;-73
2022/05/20 10:07:10;;;;;;;9.80;9.00;;;;;;;45.83;4.55;99605.56;5053935;28;20039;-73
2022/05/20 10:09:50;;;;;;;11.23;10.40;;;;;;;45.91;4.43;99599.06;5036815;28;20047;-72
2022/05/20 10:12:38;;;;;;;9.52;8.90;;;;;;;47.29;4.59;99603.97;5036996;28;20052;-73
2022/05/20 10:15:13;;;;;;;9.43;8.73;;;;;;;46.58;3.98;99598.72;5037190;28;20529;-74
2022/05/20 10:17:47;;;;;;;10.80;9.88;;;;;;;46.39;3.75;99600.44;5053727;28;20056;-75
2022/05/20 10:20:36;;;;;;;9.95;9.35;;;;;;;47.46;4.20;99593.59;5053351;28;20051;-73
2022/05/20 10:23:07;;;;;;;12.00;11.20;;;;;;;47.02;4.19;99581.28;5036001;28;20047;-75
2022/05/20 10:25:49;;;;;;;9.88;9.18;;;;;;;45.10;4.23;99576.91;5070791;27;20047;-75
2022/05/20 10:34:12;;;;;;;4.43;4.13;;;;;;;32.73;9.25;99545.09;5078979;27;20039;-77
2022/05/20 10:37:06;;;;;;;4.97;3.70;;;;;;;30.65;10.85;99544.94;5061108;28;20031;-72
2022/05/20 10:40:00;;;;;;;4.63;3.00;;;;;;;28.61;12.35;99534.34;5099713;27;20031;-71
2022/05/20 10:42:31;;;;;;;5.03;3.40;;;;;;;26.50;13.29;99543.19;5020763;28;20497;-72
2022/05/20 10:48:36;;;;;;;4.60;3.20;;;;;;;23.51;14.52;99531.41;5054910;28;20052;-73
2022/05/20 10:51:09;;;;;;;2.72;2.45;;;;;;;21.82;15.47;99532.50;5053403;28;20028;-71
2022/05/20 10:53:45;;;;;;;4.25;2.42;;;;;;;20.72;16.24;99533.81;5036257;28;20107;-71
2022/05/20 10:56:23;;;;;;;2.95;2.42;;;;;;;20.03;16.56;99529.97;5053016;28;20453;-73
2022/05/20 10:59:03;;;;;;;3.28;2.55;;;;;;;19.13;17.51;99537.25;5036411;28;20614;-71
2022/05/20 11:02:05;;;;;;;3.92;2.50;;;;;;;18.59;18.29;99529.69;5038821;28;20140;-71
2022/05/20 11:05:07;;;;;;;2.60;2.00;;;;;;;18.04;17.91;99530.06;5036510;28;20055;-71
2022/05/20 11:08:04;;;;;;;2.83;2.17;;;;;;;17.50;18.51;99526.63;5036374;28;20050;-71
2022/05/20 11:15:06;;;;;;;3.60;2.35;;;;;;;16.60;18.90;99518.63;4994566;28;20053;-67
2022/05/20 11:18:04;;;;;;;2.08;1.85;;;;;;;16.10;20.64;99516.34;4996663;28;20414;-69
2022/05/20 11:20:44;;;;;;;3.20;2.38;;;;;;;15.77;21.65;99511.53;4970646;28;20056;-70
2022/05/20 11:23:42;;;;;;;3.20;2.28;;;;;;;15.60;21.50;99510.41;4996601;28;20527;-71
2022/05/20 11:26:14;;;;;;;3.83;2.28;;;;;;;15.53;22.17;99510.13;4996029;28;20119;-70
2022/05/20 11:28:47;;;;;;;5.28;1.95;;;;;;;15.36;22.99;99512.69;5001058;28;20076;-72
2022/05/20 11:31:50;;;;;;;2.40;2.20;;;;;;;15.36;22.22;99507.31;5017811;28;20041;-72
2022/05/20 11:34:50;;;;;;;3.42;2.85;;;;;;;15.27;22.48;99509.03;4938977;28;20047;-69
2022/05/20 11:37:48;;;;;;;4.20;2.00;;;;;;;15.29;21.56;99507.03;4906037;28;20097;-69
2022/05/20 11:40:50;;;;;;;3.95;2.40;;;;;;;15.01;22.37;99499.88;4922347;28;20438;-71
2022/05/20 11:43:32;;;;;;;4.22;2.45;;;;;;;14.82;23.14;99498.84;4907202;28;21007;-72
2022/05/20 11:46:08;;;;;;;2.45;2.10;;;;;;;14.72;23.88;99491.78;4922257;28;20054;-75
2022/05/20 11:48:48;;;;;;;3.15;2.20;;;;;;;14.69;22.91;99490.22;5014247;28;20508;-77
2022/05/20 11:51:22;;;;;;;2.47;1.73;;;;;;;14.60;23.66;99485.69;4969347;28;20036;-75
2022/05/20 11:53:57;;;;;;;3.67;2.67;;;;;;;14.59;24.80;99475.09;5004531;28;20041;-74
2022/05/20 11:56:43;;;;;;;5.82;2.33;;;;;;;14.64;23.63;99468.34;5004047;28;20054;-73
2022/05/20 11:59:29;;;;;;;4.47;2.95;;;;;;;14.65;23.14;99478.09;5018245;28;20095;-73
2022/05/20 12:01:59;;;;;;;6.15;2.60;;;;;;;14.60;23.31;99472.28;4999959;28;20045;-72
2022/05/20 12:04:27;;;;;;;2.80;2.28;;;;;;;14.50;23.61;99472.25;4999321;28;20056;-72
2022/05/20 12:06:59;;;;;;;5.80;2.50;;;;;;;14.48;23.80;99470.69;5015915;28;20415;-72
2022/05/20 12:09:43;;;;;;;4.90;2.03;;;;;;;14.48;24.06;99479.59;5016432;28;20119;-72
2022/05/20 12:12:23;;;;;;;3.15;1.90;;;;;;;14.37;24.41;99471.63;5063703;27;20123;-74
2022/05/20 12:15:08;;;;;;;4.22;1.88;;;;;;;14.28;23.92;99472.47;5064168;27;20039;-73
2022/05/20 12:17:49;;;;;;;4.10;1.85;;;;;;;14.13;24.92;99471.97;5081239;27;20522;-73
2022/05/20 12:26:07;;;;;;;2.13;1.60;;;;;;;13.90;24.40;99451.72;5072619;27;20046;-73
2022/05/20 12:28:35;;;;;;;3.67;1.90;;;;;;;13.82;23.75;99456.94;5091602;27;20050;-78
2022/05/20 12:31:12;;;;;;;3.65;2.08;;;;;;;13.74;23.99;99446.88;5088624;27;20142;-74